Time;durP1;ratioP1;P1;durP2;ratioP2;P2;SDS_P1;SDS_P2;PMS_P1;PMS_P2;Temp;Humidity;BMP_temperature;BMP_pressure;BME280_temperature;BME280_humidity;BME280_pressure;Samples;Min_cycle;Max_cycle;Signal;HPM_P1;HPM_P2
2023/07/15 00:00:46;;;;;;;8.80;4.22;;;19.40;99.90;;;;;;5035301;28;20039;-80
2023/07/15 00:03:14;;;;;;;9.27;4.35;;;19.30;99.90;;;;;;5052169;28;20118;-80
2023/07/15 00:05:39;;;;;;;9.07;4.43;;;19.30;99.90;;;;;;5035287;28;20083;-80
2023/07/15 00:08:06;;;;;;;10.88;4.55;;;19.30;99.90;;;;;;5051933;28;20037;-81
2023/07/15 00:10:34;;;;;;;9.05;4.63;;;19.40;99.90;;;;;;5056471;28;20047;-82
2023/07/15 00:13:00;;;;;;;10.05;4.68;;;19.30;99.90;;;;;;5070980;28;20040;-81
2023/07/15 00:15:25;;;;;;;7.60;4.28;;;19.30;99.90;;;;;;5054979;28;20052;-81
2023/07/15 00:17:52;;;;;;;8.85;4.47;;;19.20;99.90;;;;;;5071263;28;20067;-80
2023/07/15 00:20:19;;;;;;;11.13;4.63;;;19.20;99.90;;;;;;5070953;28;20046;-80
2023/07/15 00:22:45;;;;;;;7.70;4.32;;;19.20;99.90;;;;;;5054906;28;20568;-81
2023/07/15 00:25:20;;;;;;;9.63;4.47;;;19.10;99.90;;;;;;5071932;28;20082;-81
2023/07/15 00:27:46;;;;;;;7.43;4.45;;;19.10;99.90;;;;;;5046964;28;20532;-80
2023/07/15 00:30:14;;;;;;;8.98;4.32;;;19.20;99.90;;;;;;5051198;28;20037;-80
2023/07/15 00:32:42;;;;;;;7.72;4.45;;;19.20;99.90;;;;;;5051630;28;20041;-80
2023/07/15 00:35:20;;;;;;;8.70;3.80;;;19.20;99.90;;;;;;5051503;28;20037;-82
2023/07/15 00:37:46;;;;;;;8.05;4.13;;;19.10;99.90;;;;;;5068405;28;20500;-81
2023/07/15 00:40:12;;;;;;;10.48;4.03;;;19.20;99.90;;;;;;5052673;28;20047;-81
2023/07/15 00:42:52;;;;;;;8.15;3.97;;;19.20;99.90;;;;;;5067635;28;20036;-80
2023/07/15 00:45:17;;;;;;;11.32;4.03;;;19.20;99.90;;;;;;5054781;28;20032;-80
2023/07/15 00:48:06;;;;;;;9.80;4.30;;;19.30;99.90;;;;;;5055126;28;20362;-81
2023/07/15 00:50:32;;;;;;;7.15;3.65;;;19.20;99.90;;;;;;5071265;28;20447;-81
2023/07/15 00:52:58;;;;;;;7.13;3.63;;;19.30;99.90;;;;;;5071752;28;20037;-81
2023/07/15 00:55:24;;;;;;;8.82;3.90;;;19.30;99.90;;;;;;5035302;28;20056;-82
2023/07/15 00:57:50;;;;;;;8.23;3.60;;;19.30;99.90;;;;;;5068342;28;20052;-82
2023/07/15 01:00:18;;;;;;;9.32;3.80;;;19.40;99.90;;;;;;5054165;28;20048;-81
2023/07/15 01:02:44;;;;;;;6.75;3.40;;;19.30;99.90;;;;;;5070845;28;20094;-81
2023/07/15 01:05:10;;;;;;;6.70;3.47;;;19.40;99.90;;;;;;5054018;28;20041;-81
2023/07/15 01:07:36;;;;;;;7.05;3.70;;;19.40;99.90;;;;;;5071687;28;20552;-81
2023/07/15 01:10:02;;;;;;;9.25;3.58;;;19.40;99.90;;;;;;5056273;28;20076;-81
2023/07/15 01:12:28;;;;;;;7.03;3.60;;;19.50;99.90;;;;;;5081757;28;20089;-81
2023/07/15 01:14:54;;;;;;;8.25;3.42;;;19.50;99.90;;;;;;5074968;28;20048;-81
2023/07/15 01:17:20;;;;;;;7.40;3.20;;;19.60;99.90;;;;;;5074864;28;20046;-81
2023/07/15 01:19:45;;;;;;;6.55;3.25;;;19.60;99.90;;;;;;5055827;28;20040;-81
2023/07/15 01:22:11;;;;;;;7.30;3.50;;;19.70;99.90;;;;;;5058280;28;20040;-82
2023/07/15 01:24:38;;;;;;;7.40;3.17;;;19.80;99.90;;;;;;5062112;28;20040;-81
2023/07/15 01:27:07;;;;;;;6.63;3.53;;;19.80;99.90;;;;;;5055015;28;20056;-81
2023/07/15 01:29:33;;;;;;;6.43;3.00;;;19.80;99.90;;;;;;5037596;28;20508;-81
2023/07/15 01:31:59;;;;;;;5.53;2.90;;;19.80;99.90;;;;;;5054770;28;20044;-81
2023/07/15 01:34:24;;;;;;;5.10;2.60;;;19.90;99.90;;;;;;5071096;28;20373;-81
2023/07/15 01:36:51;;;;;;;7.30;3.22;;;20.00;99.90;;;;;;5054575;28;20040;-80
2023/07/15 01:39:16;;;;;;;6.03;3.05;;;20.00;99.90;;;;;;5063484;28;20492;-80
2023/07/15 01:41:45;;;;;;;7.13;3.15;;;20.10;99.90;;;;;;5061110;28;20074;-81
2023/07/15 01:44:12;;;;;;;6.40;2.90;;;20.10;99.90;;;;;;5074577;28;20029;-81
2023/07/15 01:46:39;;;;;;;6.63;3.28;;;20.20;99.90;;;;;;5054655;28;20041;-81
2023/07/15 01:49:07;;;;;;;6.82;3.22;;;20.10;99.90;;;;;;5071357;28;20455;-81
2023/07/15 01:51:33;;;;;;;9.40;3.13;;;20.20;99.90;;;;;;5065981;28;20071;-82
2023/07/15 01:53:59;;;;;;;6.53;3.00;;;20.30;99.90;;;;;;5056198;28;20062;-81
2023/07/15 01:56:25;;;;;;;8.05;2.72;;;20.20;99.90;;;;;;5074326;28;20563;-81
2023/07/15 01:58:50;;;;;;;4.78;2.60;;;20.40;99.90;;;;;;5052885;28;20048;-82
2023/07/15 02:01:16;;;;;;;5.63;2.55;;;20.50;99.90;;;;;;5072318;28;20064;-82
2023/07/15 02:03:41;;;;;;;6.80;2.83;;;20.50;99.90;;;;;;5052277;28;20064;-81
2023/07/15 02:06:07;;;;;;;7.03;2.80;;;20.50;99.90;;;;;;5074065;28;20041;-82
2023/07/15 02:08:32;;;;;;;7.38;2.83;;;20.50;99.90;;;;;;5050574;28;20043;-81
2023/07/15 02:10:58;;;;;;;5.72;2.78;;;20.40;99.90;;;;;;5052956;28;20037;-81
2023/07/15 02:13:25;;;;;;;5.65;2.83;;;20.30;99.90;;;;;;5039048;28;20036;-82
2023/07/15 02:15:51;;;;;;;6.28;3.35;;;20.30;99.90;;;;;;5053694;28;20047;-82
2023/07/15 02:18:17;;;;;;;6.43;2.80;;;20.40;99.90;;;;;;5055908;28;20047;-82
2023/07/15 02:20:42;;;;;;;5.85;2.90;;;20.40;99.90;;;;;;5055406;28;20036;-82
2023/07/15 02:23:10;;;;;;;7.70;3.20;;;20.30;99.90;;;;;;5071234;28;20400;-82
2023/07/15 02:25:36;;;;;;;7.20;3.03;;;20.20;99.90;;;;;;5065390;28;20041;-82
2023/07/15 02:28:02;;;;;;;7.32;2.92;;;20.10;99.90;;;;;;5050948;28;20101;-82
2023/07/15 02:30:28;;;;;;;7.05;2.95;;;20.10;99.90;;;;;;5045967;28;20190;-82
2023/07/15 02:32:54;;;;;;;9.70;2.78;;;20.20;99.90;;;;;;5057421;28;20163;-82
2023/07/15 02:35:20;;;;;;;6.57;2.80;;;20.20;99.90;;;;;;5073723;28;20052;-81
2023/07/15 02:37:49;;;;;;;7.05;2.90;;;20.00;99.90;;;;;;5073653;28;20037;-82
2023/07/15 02:40:15;;;;;;;8.18;3.03;;;20.00;99.90;;;;;;5055800;28;20080;-82
2023/07/15 02:42:41;;;;;;;7.90;2.85;;;19.90;99.90;;;;;;5055418;28;20131;-82
2023/07/15 02:45:09;;;;;;;6.65;2.92;;;19.90;99.90;;;;;;5056650;28;20040;-81
2023/07/15 02:47:36;;;;;;;8.48;3.05;;;19.90;99.90;;;;;;5072156;28;20090;-82
2023/07/15 02:50:04;;;;;;;6.45;2.90;;;20.00;99.90;;;;;;5038430;28;20039;-81
2023/07/15 02:52:32;;;;;;;6.60;2.72;;;20.10;99.90;;;;;;5070253;28;20048;-82
2023/07/15 02:54:59;;;;;;;5.93;2.88;;;20.00;99.90;;;;;;5042208;28;20046;-81
2023/07/15 02:57:24;;;;;;;7.93;3.00;;;19.80;99.90;;;;;;5056651;28;20036;-82
2023/07/15 02:59:50;;;;;;;8.50;3.05;;;19.80;99.90;;;;;;5056412;28;20047;-82
2023/07/15 03:02:15;;;;;;;5.72;2.65;;;19.80;99.90;;;;;;5070990;28;20072;-82
2023/07/15 03:04:41;;;;;;;7.55;3.10;;;19.90;99.90;;;;;;5043262;28;20123;-82
2023/07/15 03:07:09;;;;;;;6.90;3.00;;;19.80;99.90;;;;;;5058143;28;20040;-82
2023/07/15 03:09:35;;;;;;;7.72;3.30;;;19.70;99.90;;;;;;5073998;28;20111;-82
2023/07/15 03:12:01;;;;;;;7.53;3.10;;;19.70;99.90;;;;;;5060545;28;20477;-81
2023/07/15 03:14:26;;;;;;;6.65;3.10;;;19.70;99.90;;;;;;5053898;28;20091;-81
2023/07/15 03:16:52;;;;;;;6.65;2.97;;;19.60;99.90;;;;;;5062545;28;20097;-81
2023/07/15 03:19:17;;;;;;;6.60;2.97;;;19.50;99.90;;;;;;5073175;28;20037;-82
2023/07/15 03:21:43;;;;;;;7.30;3.25;;;19.50;99.90;;;;;;5070558;28;20488;-82
2023/07/15 03:24:09;;;;;;;6.95;2.97;;;19.50;99.90;;;;;;5054770;28;20032;-82
2023/07/15 03:26:35;;;;;;;7.00;2.85;;;19.40;99.90;;;;;;5071203;28;20036;-82
2023/07/15 03:29:00;;;;;;;7.45;2.97;;;19.40;99.90;;;;;;5047108;28;20102;-82
2023/07/15 03:31:26;;;;;;;7.10;2.90;;;19.40;99.90;;;;;;5069117;28;20041;-82
2023/07/15 03:33:53;;;;;;;6.10;2.88;;;19.40;99.90;;;;;;5045652;28;20037;-82
2023/07/15 03:36:19;;;;;;;7.28;3.08;;;19.40;99.90;;;;;;5069102;28;20047;-82
2023/07/15 03:38:44;;;;;;;6.55;3.00;;;19.30;99.90;;;;;;5052075;28;20382;-82
2023/07/15 03:41:10;;;;;;;6.43;2.70;;;19.40;99.90;;;;;;5054291;28;20044;-81
2023/07/15 03:43:35;;;;;;;6.60;2.90;;;19.30;99.90;;;;;;5072655;28;20044;-82
2023/07/15 03:46:01;;;;;;;7.45;2.72;;;19.30;99.90;;;;;;5054607;28;20033;-82
2023/07/15 03:48:26;;;;;;;6.05;2.60;;;19.30;99.90;;;;;;5054570;28;20040;-82
2023/07/15 03:50:53;;;;;;;5.53;2.67;;;19.20;99.90;;;;;;5072510;28;20485;-82
2023/07/15 03:53:18;;;;;;;6.47;2.60;;;19.30;99.90;;;;;;5072312;28;20483;-82
2023/07/15 03:55:44;;;;;;;6.47;2.90;;;19.30;99.90;;;;;;5043850;28;20068;-82
2023/07/15 03:58:10;;;;;;;5.72;2.92;;;19.20;99.90;;;;;;5053301;28;20412;-82
2023/07/15 04:00:35;;;;;;;6.07;3.08;;;19.20;99.90;;;;;;5072273;28;20044;-82
2023/07/15 04:03:01;;;;;;;6.82;2.72;;;19.20;99.90;;;;;;5066454;28;20493;-82
2023/07/15 04:05:27;;;;;;;8.73;2.72;;;19.20;99.90;;;;;;5051923;28;20036;-82
2023/07/15 04:07:53;;;;;;;9.05;2.80;;;19.10;99.90;;;;;;5068901;28;20165;-82
2023/07/15 04:10:19;;;;;;;7.05;2.90;;;19.20;99.90;;;;;;5053949;28;20032;-82
2023/07/15 04:12:45;;;;;;;6.85;2.97;;;19.10;99.90;;;;;;5042964;28;20497;-82
2023/07/15 04:15:10;;;;;;;6.72;3.10;;;19.10;99.90;;;;;;5068348;28;20039;-82
2023/07/15 04:17:36;;;;;;;7.75;3.03;;;19.10;99.90;;;;;;5069179;28;20534;-82
2023/07/15 04:20:08;;;;;;;6.10;2.70;;;19.10;99.90;;;;;;5039201;28;20077;-82
2023/07/15 04:22:37;;;;;;;9.02;2.80;;;19.10;99.90;;;;;;5070572;28;20044;-82
2023/07/15 04:25:03;;;;;;;8.27;3.25;;;19.20;99.90;;;;;;5073232;28;20044;-82
2023/07/15 04:27:28;;;;;;;10.80;3.22;;;19.20;99.90;;;;;;5043185;28;20082;-82
2023/07/15 04:29:54;;;;;;;8.02;3.15;;;19.10;99.90;;;;;;5071958;28;20076;-82
2023/07/15 04:32:19;;;;;;;6.38;2.75;;;19.10;99.90;;;;;;5053932;28;20119;-82
2023/07/15 04:34:49;;;;;;;5.90;3.05;;;19.10;99.90;;;;;;5054079;28;20479;-82
2023/07/15 04:37:16;;;;;;;6.90;2.72;;;19.20;99.90;;;;;;5069467;28;20040;-82
2023/07/15 04:39:41;;;;;;;6.40;2.85;;;19.10;99.90;;;;;;5071938;28;20075;-82
2023/07/15 04:42:07;;;;;;;5.80;2.67;;;19.10;99.90;;;;;;5067683;28;20072;-82
2023/07/15 04:44:32;;;;;;;6.10;2.65;;;19.10;99.90;;;;;;5070019;28;20037;-82
2023/07/15 04:46:58;;;;;;;5.25;2.70;;;19.10;99.90;;;;;;5073263;28;20033;-82
2023/07/15 04:49:24;;;;;;;7.45;3.15;;;19.10;99.90;;;;;;5057193;28;20032;-82
2023/07/15 04:51:50;;;;;;;8.68;2.53;;;19.10;99.90;;;;;;5062429;28;20047;-82
2023/07/15 04:54:15;;;;;;;8.73;3.05;;;19.10;99.90;;;;;;5088518;28;20459;-82
2023/07/15 04:56:41;;;;;;;10.95;2.95;;;19.10;99.90;;;;;;5074881;28;20044;-82
2023/07/15 04:59:07;;;;;;;6.18;2.75;;;19.10;99.90;;;;;;5048577;28;20493;-82
2023/07/15 05:01:33;;;;;;;5.82;2.70;;;19.20;99.90;;;;;;5072323;28;20033;-82
2023/07/15 05:04:01;;;;;;;5.07;2.50;;;19.20;99.90;;;;;;5075174;28;20554;-82
2023/07/15 05:06:31;;;;;;;6.68;2.70;;;19.20;99.90;;;;;;5056465;28;20040;-81
2023/07/15 05:08:57;;;;;;;5.13;2.47;;;19.20;99.90;;;;;;5051828;28;20481;-82
2023/07/15 05:11:25;;;;;;;6.50;2.70;;;19.20;99.90;;;;;;5055254;28;20109;-82
2023/07/15 05:13:50;;;;;;;5.22;2.67;;;19.20;99.90;;;;;;5055171;28;20098;-82
2023/07/15 05:16:16;;;;;;;8.27;3.30;;;19.30;99.90;;;;;;5038505;28;20045;-82
2023/07/15 05:18:41;;;;;;;7.82;3.08;;;19.30;99.90;;;;;;5050800;28;20052;-82
2023/07/15 05:21:07;;;;;;;6.60;2.60;;;19.30;99.90;;;;;;5057421;28;20041;-82
2023/07/15 05:23:33;;;;;;;6.57;2.97;;;19.40;99.90;;;;;;5052074;28;20141;-82
2023/07/15 05:25:59;;;;;;;7.95;2.85;;;19.50;99.90;;;;;;5072595;28;20129;-82
2023/07/15 05:28:30;;;;;;;6.60;2.78;;;19.50;99.90;;;;;;5057037;28;20063;-82
2023/07/15 05:31:05;;;;;;;6.55;2.88;;;19.50;99.90;;;;;;5058169;28;20036;-82
2023/07/15 05:33:31;;;;;;;8.57;2.67;;;19.60;99.90;;;;;;5068043;28;20124;-82
2023/07/15 05:35:57;;;;;;;7.65;2.70;;;19.70;99.90;;;;;;5054936;28;20127;-82
2023/07/15 05:38:24;;;;;;;7.00;3.45;;;19.90;99.90;;;;;;5062539;28;20039;-81
2023/07/15 05:40:50;;;;;;;6.68;2.90;;;19.90;99.90;;;;;;5039214;28;20397;-82
2023/07/15 05:43:16;;;;;;;8.18;3.00;;;20.00;99.90;;;;;;5068501;28;20040;-82
2023/07/15 05:45:41;;;;;;;6.20;2.70;;;20.00;99.90;;;;;;5074594;28;20032;-82
2023/07/15 05:48:07;;;;;;;8.23;3.15;;;20.10;99.90;;;;;;5074741;28;20370;-82
2023/07/15 05:50:36;;;;;;;7.50;3.40;;;20.20;99.90;;;;;;5050867;28;20079;-82
2023/07/15 05:53:03;;;;;;;6.25;3.10;;;20.20;99.90;;;;;;5073153;28;20044;-82
2023/07/15 05:55:28;;;;;;;6.95;2.90;;;20.40;99.90;;;;;;5046351;28;20037;-82
2023/07/15 05:57:54;;;;;;;7.22;2.67;;;20.50;99.90;;;;;;5056698;28;20117;-82
2023/07/15 06:00:20;;;;;;;9.45;3.58;;;20.50;99.90;;;;;;5054266;28;20040;-82
2023/07/15 06:02:46;;;;;;;7.43;3.38;;;20.70;99.90;;;;;;5070448;28;20130;-82
2023/07/15 06:05:11;;;;;;;7.05;2.90;;;20.70;99.90;;;;;;5040433;28;20040;-82
2023/07/15 06:07:37;;;;;;;11.80;3.00;;;20.80;99.90;;;;;;5069666;28;20504;-82
2023/07/15 06:10:03;;;;;;;6.35;3.28;;;20.90;99.90;;;;;;5074153;28;20037;-82
2023/07/15 06:12:29;;;;;;;7.50;3.35;;;21.00;99.90;;;;;;5039698;28;20511;-82
2023/07/15 06:14:55;;;;;;;7.10;3.20;;;21.10;99.90;;;;;;5070867;28;20070;-80
2023/07/15 06:17:21;;;;;;;9.60;3.22;;;21.20;99.90;;;;;;5065142;28;20041;-80
2023/07/15 06:19:46;;;;;;;10.75;3.53;;;21.20;99.90;;;;;;5055335;28;20062;-81
2023/07/15 06:22:12;;;;;;;9.07;3.03;;;21.30;99.90;;;;;;5041486;28;20470;-80
2023/07/15 06:24:38;;;;;;;5.35;2.65;;;21.50;99.90;;;;;;5065294;28;20036;-80
2023/07/15 06:27:04;;;;;;;5.25;2.45;;;21.40;99.90;;;;;;5071343;28;20033;-80
2023/07/15 06:29:29;;;;;;;7.97;2.70;;;21.60;99.90;;;;;;5072618;28;20053;-80
2023/07/15 06:31:55;;;;;;;9.55;3.08;;;21.60;99.90;;;;;;5073642;28;20083;-80
2023/07/15 06:34:20;;;;;;;6.03;2.70;;;21.70;99.90;;;;;;5055264;28;20074;-80
2023/07/15 06:36:46;;;;;;;6.43;2.90;;;21.70;99.90;;;;;;5056289;28;20497;-81
2023/07/15 06:39:12;;;;;;;9.00;2.65;;;21.70;99.90;;;;;;5064491;28;20041;-71
2023/07/15 06:41:38;;;;;;;6.95;2.50;;;21.70;99.90;;;;;;5071779;28;20416;-72
2023/07/15 06:44:03;;;;;;;7.57;2.92;;;21.80;99.90;;;;;;5055491;28;20048;-72
2023/07/15 06:46:29;;;;;;;5.55;2.30;;;21.80;99.90;;;;;;5071143;28;20489;-73
2023/07/15 06:48:55;;;;;;;6.75;2.40;;;21.80;99.90;;;;;;5056808;28;20044;-74
2023/07/15 06:51:22;;;;;;;8.27;2.72;;;21.80;99.90;;;;;;5072762;28;20044;-73
2023/07/15 06:53:48;;;;;;;5.60;2.65;;;21.90;99.90;;;;;;5056618;28;20036;-73
2023/07/15 06:56:14;;;;;;;7.05;2.60;;;21.90;99.90;;;;;;5072717;28;20173;-73
2023/07/15 06:58:40;;;;;;;6.88;2.72;;;22.00;99.90;;;;;;5073008;28;20457;-72
2023/07/15 07:01:05;;;;;;;6.50;2.70;;;22.00;99.90;;;;;;5069656;28;20442;-72
2023/07/15 07:03:32;;;;;;;7.45;3.08;;;22.10;99.90;;;;;;5073242;28;20033;-73
2023/07/15 07:05:58;;;;;;;6.30;2.85;;;22.20;99.90;;;;;;5070936;28;20120;-76
2023/07/15 07:08:23;;;;;;;6.45;2.67;;;22.10;99.90;;;;;;5078024;28;20463;-73
2023/07/15 07:10:52;;;;;;;7.28;2.58;;;22.30;99.90;;;;;;5068387;28;20037;-74
2023/07/15 07:13:21;;;;;;;5.78;2.42;;;22.30;99.90;;;;;;5067009;28;20048;-81
2023/07/15 07:15:47;;;;;;;7.47;2.38;;;22.30;99.90;;;;;;5061343;28;20508;-81
2023/07/15 07:18:13;;;;;;;5.97;2.85;;;22.40;99.90;;;;;;5071648;28;20044;-79
2023/07/15 07:20:39;;;;;;;6.90;2.60;;;22.60;99.90;;;;;;5069351;28;20124;-79
2023/07/15 07:23:05;;;;;;;6.00;2.40;;;22.70;99.90;;;;;;5031948;28;20048;-79
2023/07/15 07:25:31;;;;;;;7.10;2.60;;;22.70;99.90;;;;;;5076984;28;20043;-79
2023/07/15 07:27:56;;;;;;;8.05;3.03;;;22.80;99.90;;;;;;5049561;28;20048;-79
2023/07/15 07:30:26;;;;;;;6.97;2.30;;;22.90;99.90;;;;;;5054612;28;20546;-79
2023/07/15 07:32:52;;;;;;;7.75;2.92;;;22.90;99.90;;;;;;5053387;28;20051;-79
2023/07/15 07:35:17;;;;;;;5.25;2.30;;;22.90;99.90;;;;;;5070267;28;20040;-80
2023/07/15 07:37:43;;;;;;;5.18;2.30;;;22.90;99.90;;;;;;5037367;28;20774;-79
2023/07/15 07:40:12;;;;;;;6.60;2.55;;;23.00;99.90;;;;;;5060190;28;20028;-80
2023/07/15 07:42:37;;;;;;;5.72;2.60;;;23.00;99.90;;;;;;5053687;28;20152;-79
2023/07/15 07:45:16;;;;;;;7.18;2.42;;;23.00;99.90;;;;;;5064098;28;20108;-79
2023/07/15 07:47:42;;;;;;;5.90;2.25;;;23.20;99.90;;;;;;5037757;28;20076;-80
2023/07/15 07:50:08;;;;;;;6.22;2.30;;;23.00;99.90;;;;;;5060351;28;20068;-80
2023/07/15 07:52:33;;;;;;;7.88;2.60;;;23.00;99.90;;;;;;5055036;28;20036;-80
2023/07/15 07:54:59;;;;;;;10.88;2.90;;;23.10;99.90;;;;;;5066914;28;20044;-80
2023/07/15 07:57:25;;;;;;;6.97;2.40;;;23.10;99.90;;;;;;5068408;28;20106;-80
2023/07/15 07:59:50;;;;;;;6.38;2.70;;;23.20;99.90;;;;;;5069289;28;20040;-80
2023/07/15 08:02:16;;;;;;;5.63;2.50;;;23.20;99.90;;;;;;5055337;28;20037;-80
2023/07/15 08:04:41;;;;;;;6.03;2.35;;;23.30;99.90;;;;;;5071669;28;20079;-80
2023/07/15 08:07:07;;;;;;;6.53;2.33;;;23.40;99.90;;;;;;5054800;28;20052;-80
2023/07/15 08:09:32;;;;;;;6.13;2.63;;;23.40;99.90;;;;;;5045817;28;20089;-80
2023/07/15 08:11:59;;;;;;;6.20;2.50;;;23.40;99.90;;;;;;5043220;28;20044;-80
2023/07/15 08:14:24;;;;;;;6.85;2.30;;;23.40;99.90;;;;;;5064184;28;20519;-80
2023/07/15 08:16:50;;;;;;;7.28;2.65;;;23.40;99.90;;;;;;5055461;28;20032;-80
2023/07/15 08:19:16;;;;;;;6.05;2.22;;;23.40;99.90;;;;;;5038891;28;20488;-80
2023/07/15 08:21:42;;;;;;;5.53;2.15;;;23.50;99.90;;;;;;5042130;28;20037;-80
2023/07/15 08:24:07;;;;;;;6.43;2.40;;;23.60;99.90;;;;;;5061893;28;20063;-81
2023/07/15 08:26:33;;;;;;;6.65;1.95;;;23.50;99.90;;;;;;5058843;28;20072;-81
2023/07/15 08:29:00;;;;;;;6.30;2.20;;;23.80;99.90;;;;;;5051514;28;20140;-80
2023/07/15 08:31:26;;;;;;;6.07;2.20;;;23.80;99.90;;;;;;5056311;28;20056;-80
2023/07/15 08:33:52;;;;;;;4.25;1.98;;;23.80;99.90;;;;;;5064368;28;20036;-80
2023/07/15 08:36:17;;;;;;;5.00;2.20;;;23.80;99.90;;;;;;5043321;28;20396;-80
2023/07/15 08:38:43;;;;;;;5.57;2.40;;;23.70;99.90;;;;;;5055090;28;20029;-80
2023/07/15 08:41:10;;;;;;;10.77;2.97;;;23.60;99.90;;;;;;5051154;28;20565;-80
2023/07/15 08:43:35;;;;;;;5.43;2.45;;;23.70;99.90;;;;;;5068502;28;20041;-80
2023/07/15 08:46:10;;;;;;;5.72;2.35;;;23.70;99.90;;;;;;5040427;28;20120;-80
2023/07/15 08:48:37;;;;;;;5.78;2.15;;;23.70;99.90;;;;;;5034243;28;20033;-81
2023/07/15 08:51:05;;;;;;;6.78;2.22;;;23.80;99.90;;;;;;5053417;28;20039;-80
2023/07/15 08:53:31;;;;;;;5.18;2.30;;;23.80;99.90;;;;;;5056988;28;20117;-80
2023/07/15 08:55:57;;;;;;;5.22;2.42;;;23.90;99.90;;;;;;5048433;28;20032;-80
2023/07/15 08:58:24;;;;;;;5.22;2.70;;;24.00;99.90;;;;;;5068209;28;20373;-80
2023/07/15 09:00:51;;;;;;;5.72;2.55;;;24.00;99.90;;;;;;5069786;28;20044;-80
2023/07/15 09:03:17;;;;;;;5.88;2.80;;;24.10;99.90;;;;;;5034046;28;20038;-80
2023/07/15 09:05:44;;;;;;;6.07;2.65;;;24.00;99.90;;;;;;5045545;28;20109;-80
2023/07/15 09:08:11;;;;;;;5.72;2.95;;;24.00;99.90;;;;;;5067344;28;20072;-80
2023/07/15 09:10:50;;;;;;;6.80;3.00;;;24.00;99.90;;;;;;5049392;28;20041;-80
2023/07/15 09:13:28;;;;;;;9.05;2.80;;;24.00;99.90;;;;;;5062602;28;20140;-80
2023/07/15 09:15:54;;;;;;;4.90;2.38;;;24.00;99.90;;;;;;5065978;28;20119;-80
2023/07/15 09:18:20;;;;;;;5.57;2.47;;;24.00;99.90;;;;;;5069395;28;20042;-80
2023/07/15 09:20:46;;;;;;;7.63;3.05;;;24.10;99.90;;;;;;5042899;28;20044;-80
2023/07/15 09:23:12;;;;;;;5.22;2.50;;;24.10;99.90;;;;;;5067151;28;20511;-80
2023/07/15 09:25:38;;;;;;;4.35;2.40;;;24.20;99.90;;;;;;5069621;28;20033;-80
2023/07/15 09:28:07;;;;;;;5.82;2.88;;;24.30;99.90;;;;;;5069104;28;20048;-80
2023/07/15 09:30:33;;;;;;;8.60;2.80;;;24.30;99.90;;;;;;5061204;28;20055;-80
2023/07/15 09:32:59;;;;;;;12.00;2.92;;;24.20;99.90;;;;;;5037271;28;20492;-80
2023/07/15 09:35:36;;;;;;;6.60;2.50;;;24.20;99.90;;;;;;5054394;28;20520;-81
2023/07/15 09:38:02;;;;;;;6.53;2.90;;;24.20;99.90;;;;;;5050685;28;20047;-80
2023/07/15 09:40:41;;;;;;;6.65;2.80;;;24.20;99.90;;;;;;5049740;28;20037;-81
2023/07/15 09:43:07;;;;;;;6.53;2.40;;;24.00;99.90;;;;;;5051557;28;20484;-81
2023/07/15 09:45:40;;;;;;;7.68;2.30;;;24.00;99.90;;;;;;5049920;28;20083;-80
2023/07/15 09:48:07;;;;;;;5.75;2.50;;;23.80;99.90;;;;;;5059768;28;20542;-80
2023/07/15 09:50:34;;;;;;;4.25;2.00;;;23.80;99.90;;;;;;5061844;28;20068;-81
2023/07/15 09:53:01;;;;;;;7.68;2.72;;;23.80;99.90;;;;;;5061759;28;20052;-81
2023/07/15 09:55:28;;;;;;;7.07;3.08;;;23.80;99.90;;;;;;5055284;28;20279;-81
2023/07/15 09:58:18;;;;;;;5.88;2.88;;;23.80;99.90;;;;;;5052547;28;20065;-81
2023/07/15 10:00:48;;;;;;;5.03;2.40;;;23.80;99.90;;;;;;5059771;28;20508;-81
2023/07/15 10:03:23;;;;;;;6.78;2.70;;;23.90;99.90;;;;;;5073694;28;20119;-81
2023/07/15 10:05:50;;;;;;;6.00;2.70;;;23.90;99.90;;;;;;5046058;28;20044;-81
2023/07/15 10:08:16;;;;;;;6.85;2.70;;;24.10;99.90;;;;;;5054121;28;20520;-81
2023/07/15 10:10:42;;;;;;;6.82;2.47;;;24.20;99.90;;;;;;5060646;28;20040;-81
2023/07/15 10:13:10;;;;;;;4.40;2.13;;;24.30;99.90;;;;;;5043180;28;20476;-81
2023/07/15 10:15:36;;;;;;;6.32;2.55;;;24.50;99.90;;;;;;5052804;28;20048;-81
2023/07/15 10:18:31;;;;;;;7.65;2.47;;;24.60;99.90;;;;;;5050985;28;20040;-81
2023/07/15 10:21:01;;;;;;;5.03;2.10;;;24.70;99.90;;;;;;5045237;28;20097;-81
2023/07/15 10:23:29;;;;;;;3.30;2.00;;;24.80;99.90;;;;;;5055982;28;20497;-81
2023/07/15 10:26:07;;;;;;;4.60;2.08;;;24.90;99.90;;;;;;5040957;28;20044;-81
2023/07/15 10:28:38;;;;;;;4.78;2.30;;;25.00;99.90;;;;;;5035876;28;20045;-81
2023/07/15 10:31:14;;;;;;;4.53;2.33;;;25.10;99.90;;;;;;5063673;28;20044;-78
2023/07/15 10:33:53;;;;;;;5.60;2.05;;;25.00;99.90;;;;;;5056905;28;20040;-77
2023/07/15 10:36:40;;;;;;;5.22;2.25;;;25.10;99.90;;;;;;5070360;28;20033;-78
2023/07/15 10:39:19;;;;;;;6.97;2.03;;;25.10;99.90;;;;;;5072539;28;20373;-87
2023/07/15 10:41:50;;;;;;;5.80;1.90;;;25.20;99.90;;;;;;5037804;28;20098;-75
2023/07/15 10:44:24;;;;;;;6.32;2.10;;;25.20;99.90;;;;;;5070449;28;20039;-76
2023/07/15 10:47:02;;;;;;;3.97;1.92;;;25.10;99.90;;;;;;5044995;28;20040;-79
2023/07/15 10:49:30;;;;;;;5.80;2.10;;;25.10;99.90;;;;;;5055407;28;20036;-75
2023/07/15 10:51:56;;;;;;;3.60;2.13;;;25.00;99.90;;;;;;5072778;28;20060;-75
2023/07/15 10:54:23;;;;;;;4.30;1.90;;;25.00;99.90;;;;;;5071973;28;20071;-75
2023/07/15 10:56:49;;;;;;;3.67;1.70;;;24.90;99.90;;;;;;5071563;28;20044;-75
2023/07/15 10:59:15;;;;;;;4.78;1.98;;;24.80;99.90;;;;;;5036198;28;20049;-75
2023/07/15 11:01:45;;;;;;;4.47;1.70;;;24.80;99.90;;;;;;5038394;28;20412;-75
2023/07/15 11:04:11;;;;;;;4.07;1.83;;;24.80;99.90;;;;;;5068832;28;20479;-76
2023/07/15 11:06:37;;;;;;;4.50;1.90;;;25.00;99.90;;;;;;5072703;28;20604;-83
2023/07/15 11:09:20;;;;;;;4.85;2.10;;;25.10;99.90;;;;;;5068363;28;20045;-83
2023/07/15 11:11:48;;;;;;;3.85;1.90;;;25.20;99.90;;;;;;5062494;28;20040;-83
2023/07/15 11:14:28;;;;;;;4.82;1.70;;;25.20;99.90;;;;;;5055789;28;20091;-83
2023/07/15 11:16:59;;;;;;;4.38;1.88;;;25.30;99.90;;;;;;5043960;28;20397;-83
2023/07/15 11:19:27;;;;;;;3.47;1.60;;;25.30;99.90;;;;;;5049595;28;20093;-83
2023/07/15 11:21:55;;;;;;;5.35;1.70;;;25.30;99.90;;;;;;5053882;28;20040;-83
2023/07/15 11:24:22;;;;;;;3.97;1.50;;;25.10;99.90;;;;;;5034973;28;20041;-83
2023/07/15 11:26:48;;;;;;;3.08;1.50;;;25.10;99.90;;;;;;5052224;28;20496;-84
2023/07/15 11:29:18;;;;;;;4.00;1.75;;;25.10;99.90;;;;;;5051391;28;20055;-83
2023/07/15 11:31:46;;;;;;;4.88;1.70;;;25.00;99.90;;;;;;5046340;28;20075;-83
2023/07/15 11:34:12;;;;;;;3.72;1.60;;;25.00;99.90;;;;;;5055396;28;20047;-82
2023/07/15 11:36:38;;;;;;;5.38;1.92;;;25.00;99.90;;;;;;5056824;28;20045;-83
2023/07/15 11:39:05;;;;;;;3.38;1.52;;;25.00;99.90;;;;;;5042838;28;20461;-83
2023/07/15 11:41:36;;;;;;;3.75;1.88;;;25.00;99.90;;;;;;5051034;28;20448;-83
2023/07/15 11:44:23;;;;;;;2.80;1.77;;;25.00;99.90;;;;;;5049440;28;20105;-83
2023/07/15 11:46:49;;;;;;;4.80;1.70;;;25.00;99.90;;;;;;5050614;28;20282;-83
2023/07/15 11:49:21;;;;;;;4.28;1.70;;;25.00;99.90;;;;;;5049505;28;20033;-83
2023/07/15 11:51:47;;;;;;;4.15;1.70;;;25.10;99.90;;;;;;5068250;28;20118;-82
2023/07/15 11:54:15;;;;;;;5.95;1.63;;;25.00;99.90;;;;;;5046577;28;20040;-83
2023/07/15 11:56:45;;;;;;;3.65;1.75;;;24.90;99.90;;;;;;5064363;28;20119;-83
2023/07/15 11:59:24;;;;;;;3.50;1.60;;;24.90;99.90;;;;;;5061363;28;20041;-83
2023/07/15 12:01:50;;;;;;;4.13;1.80;;;24.80;99.90;;;;;;5058220;28;20044;-83
2023/07/15 12:04:17;;;;;;;6.38;1.95;;;24.70;99.90;;;;;;5050817;28;20036;-82
2023/07/15 12:06:53;;;;;;;7.32;2.20;;;24.70;99.90;;;;;;5038514;28;20029;-84
2023/07/15 12:09:20;;;;;;;4.82;1.95;;;24.70;99.90;;;;;;5067928;28;20198;-83
2023/07/15 12:11:46;;;;;;;7.18;2.10;;;24.90;99.90;;;;;;5065061;28;20040;-83
2023/07/15 12:14:13;;;;;;;5.35;1.92;;;25.00;99.90;;;;;;5070988;28;20043;-83
2023/07/15 12:16:39;;;;;;;4.05;1.83;;;25.00;99.90;;;;;;5051254;28;20048;-83
2023/07/15 12:19:07;;;;;;;4.25;1.77;;;25.10;99.90;;;;;;5063267;28;20655;-82
2023/07/15 12:21:32;;;;;;;5.95;1.92;;;25.10;99.90;;;;;;5034113;28;20516;-84
2023/07/15 12:23:58;;;;;;;6.00;2.08;;;25.00;99.90;;;;;;5033643;28;20041;-85
2023/07/15 12:26:24;;;;;;;4.63;1.80;;;25.10;99.90;;;;;;5034435;28;20051;-83
2023/07/15 12:28:50;;;;;;;4.13;1.60;;;25.20;99.90;;;;;;5069205;28;20131;-85
2023/07/15 12:31:17;;;;;;;3.08;1.85;;;25.20;99.90;;;;;;5050447;28;20144;-83
2023/07/15 12:33:43;;;;;;;4.80;2.00;;;25.30;99.90;;;;;;5061131;28;20048;-83
2023/07/15 12:36:10;;;;;;;4.97;1.90;;;25.30;99.90;;;;;;5057561;28;20041;-77
2023/07/15 12:38:37;;;;;;;4.53;1.90;;;25.30;99.90;;;;;;5051357;28;20040;-77
2023/07/15 12:41:04;;;;;;;5.10;2.00;;;25.40;99.90;;;;;;5037548;28;20048;-77
2023/07/15 12:43:30;;;;;;;4.95;1.98;;;25.40;99.90;;;;;;5056919;28;20037;-78
2023/07/15 12:45:57;;;;;;;5.25;2.35;;;25.40;99.90;;;;;;5062900;28;20098;-77